sensor_id;sensor_type;location;lat;lon;timestamp;P1;durP1;ratioP1;P2;durP2;ratioP2
68870;SDS011;55906;52.278;6.808;2024-01-15T00:00:09;7.78;;;5.25;;
68870;SDS011;55906;52.278;6.808;2024-01-15T00:02:38;7.78;;;5.82;;
68870;SDS011;55906;52.278;6.808;2024-01-15T00:05:04;7.00;;;5.00;;
68870;SDS011;55906;52.278;6.808;2024-01-15T00:07:31;8.93;;;4.72;;
68870;SDS011;55906;52.278;6.808;2024-01-15T00:09:58;8.27;;;5.00;;
68870;SDS011;55906;52.278;6.808;2024-01-15T00:12:24;7.65;;;4.57;;
68870;SDS011;55906;52.278;6.808;2024-01-15T00:14:51;9.77;;;4.72;;
68870;SDS011;55906;52.278;6.808;2024-01-15T00:17:18;10.32;;;5.68;;
68870;SDS011;55906;52.278;6.808;2024-01-15T00:19:46;8.70;;;5.68;;
68870;SDS011;55906;52.278;6.808;2024-01-15T00:22:12;7.33;;;4.20;;
68870;SDS011;55906;52.278;6.808;2024-01-15T00:24:39;10.80;;;6.28;;
68870;SDS011;55906;52.278;6.808;2024-01-15T00:27:05;9.77;;;5.70;;
68870;SDS011;55906;52.278;6.808;2024-01-15T00:29:32;8.03;;;5.47;;
68870;SDS011;55906;52.278;6.808;2024-01-15T00:31:59;10.35;;;4.80;;
68870;SDS011;55906;52.278;6.808;2024-01-15T00:34:26;9.57;;;4.38;;
68870;SDS011;55906;52.278;6.808;2024-01-15T00:36:54;9.95;;;5.53;;
68870;SDS011;55906;52.278;6.808;2024-01-15T00:39:20;8.20;;;4.88;;
68870;SDS011;55906;52.278;6.808;2024-01-15T00:41:47;10.65;;;6.18;;
68870;SDS011;55906;52.278;6.808;2024-01-15T00:44:14;9.38;;;4.82;;
68870;SDS011;55906;52.278;6.808;2024-01-15T00:46:43;7.33;;;4.53;;
68870;SDS011;55906;52.278;6.808;2024-01-15T00:49:11;6.82;;;4.70;;
68870;SDS011;55906;52.278;6.808;2024-01-15T00:51:38;10.75;;;4.72;;
68870;SDS011;55906;52.278;6.808;2024-01-15T00:54:06;8.43;;;4.70;;
68870;SDS011;55906;52.278;6.808;2024-01-15T00:56:33;8.85;;;4.28;;
68870;SDS011;55906;52.278;6.808;2024-01-15T00:59:00;7.18;;;5.10;;
68870;SDS011;55906;52.278;6.808;2024-01-15T01:01:26;6.35;;;4.88;;
68870;SDS011;55906;52.278;6.808;2024-01-15T01:03:53;9.75;;;4.57;;
68870;SDS011;55906;52.278;6.808;2024-01-15T01:06:20;11.75;;;4.07;;
68870;SDS011;55906;52.278;6.808;2024-01-15T01:08:46;7.43;;;4.00;;
68870;SDS011;55906;52.278;6.808;2024-01-15T01:11:14;7.97;;;4.10;;
68870;SDS011;55906;52.278;6.808;2024-01-15T01:13:41;8.75;;;4.35;;
68870;SDS011;55906;52.278;6.808;2024-01-15T01:16:08;7.15;;;4.50;;
68870;SDS011;55906;52.278;6.808;2024-01-15T01:18:35;10.43;;;4.40;;
68870;SDS011;55906;52.278;6.808;2024-01-15T01:21:01;9.52;;;5.25;;
68870;SDS011;55906;52.278;6.808;2024-01-15T01:23:28;10.65;;;4.28;;
68870;SDS011;55906;52.278;6.808;2024-01-15T01:25:55;9.80;;;4.30;;
68870;SDS011;55906;52.278;6.808;2024-01-15T01:28:23;8.70;;;4.68;;
68870;SDS011;55906;52.278;6.808;2024-01-15T01:30:49;14.50;;;4.40;;
68870;SDS011;55906;52.278;6.808;2024-01-15T01:33:16;9.63;;;4.53;;
68870;SDS011;55906;52.278;6.808;2024-01-15T01:35:42;6.47;;;4.10;;
68870;SDS011;55906;52.278;6.808;2024-01-15T01:38:10;9.45;;;4.20;;
68870;SDS011;55906;52.278;6.808;2024-01-15T01:40:36;8.43;;;4.75;;
68870;SDS011;55906;52.278;6.808;2024-01-15T01:43:03;12.20;;;4.80;;
68870;SDS011;55906;52.278;6.808;2024-01-15T01:45:32;8.65;;;4.70;;
68870;SDS011;55906;52.278;6.808;2024-01-15T01:47:59;9.93;;;4.78;;
68870;SDS011;55906;52.278;6.808;2024-01-15T01:50:26;10.10;;;4.57;;
68870;SDS011;55906;52.278;6.808;2024-01-15T01:52:54;9.55;;;4.13;;
68870;SDS011;55906;52.278;6.808;2024-01-15T01:55:21;17.95;;;4.70;;
68870;SDS011;55906;52.278;6.808;2024-01-15T01:57:50;13.15;;;4.45;;
68870;SDS011;55906;52.278;6.808;2024-01-15T02:00:17;8.47;;;3.60;;
68870;SDS011;55906;52.278;6.808;2024-01-15T02:02:45;9.05;;;4.10;;
68870;SDS011;55906;52.278;6.808;2024-01-15T02:05:12;12.63;;;4.53;;
68870;SDS011;55906;52.278;6.808;2024-01-15T02:07:41;11.10;;;4.37;;
68870;SDS011;55906;52.278;6.808;2024-01-15T02:10:07;11.10;;;4.78;;
68870;SDS011;55906;52.278;6.808;2024-01-15T02:12:35;7.72;;;4.20;;
68870;SDS011;55906;52.278;6.808;2024-01-15T02:15:01;9.45;;;4.25;;
68870;SDS011;55906;52.278;6.808;2024-01-15T02:17:28;10.05;;;4.20;;
68870;SDS011;55906;52.278;6.808;2024-01-15T02:19:56;12.43;;;5.15;;
68870;SDS011;55906;52.278;6.808;2024-01-15T02:22:23;9.52;;;3.78;;
68870;SDS011;55906;52.278;6.808;2024-01-15T02:24:51;11.70;;;4.90;;
68870;SDS011;55906;52.278;6.808;2024-01-15T02:27:17;9.88;;;3.90;;
68870;SDS011;55906;52.278;6.808;2024-01-15T02:29:45;10.57;;;4.82;;
68870;SDS011;55906;52.278;6.808;2024-01-15T02:32:12;8.03;;;4.10;;
68870;SDS011;55906;52.278;6.808;2024-01-15T02:34:39;9.13;;;4.40;;
68870;SDS011;55906;52.278;6.808;2024-01-15T02:37:05;14.82;;;4.97;;
68870;SDS011;55906;52.278;6.808;2024-01-15T02:39:32;11.10;;;4.18;;
68870;SDS011;55906;52.278;6.808;2024-01-15T02:42:00;8.85;;;4.30;;
68870;SDS011;55906;52.278;6.808;2024-01-15T02:44:27;13.15;;;5.55;;
68870;SDS011;55906;52.278;6.808;2024-01-15T02:46:53;12.25;;;4.10;;
68870;SDS011;55906;52.278;6.808;2024-01-15T02:49:20;8.40;;;4.03;;
68870;SDS011;55906;52.278;6.808;2024-01-15T02:51:46;8.60;;;4.40;;
68870;SDS011;55906;52.278;6.808;2024-01-15T02:54:13;12.00;;;4.10;;
68870;SDS011;55906;52.278;6.808;2024-01-15T02:56:39;11.40;;;4.07;;
68870;SDS011;55906;52.278;6.808;2024-01-15T02:59:07;9.80;;;4.45;;
68870;SDS011;55906;52.278;6.808;2024-01-15T03:01:34;7.38;;;3.90;;
68870;SDS011;55906;52.278;6.808;2024-01-15T03:04:01;11.90;;;4.22;;
68870;SDS011;55906;52.278;6.808;2024-01-15T03:06:27;11.63;;;4.25;;
68870;SDS011;55906;52.278;6.808;2024-01-15T03:08:54;10.20;;;3.33;;
68870;SDS011;55906;52.278;6.808;2024-01-15T03:11:21;9.68;;;3.88;;
68870;SDS011;55906;52.278;6.808;2024-01-15T03:13:47;9.50;;;4.00;;
68870;SDS011;55906;52.278;6.808;2024-01-15T03:16:15;8.70;;;3.67;;
68870;SDS011;55906;52.278;6.808;2024-01-15T03:18:42;12.73;;;4.05;;
68870;SDS011;55906;52.278;6.808;2024-01-15T03:21:08;11.03;;;3.70;;
68870;SDS011;55906;52.278;6.808;2024-01-15T03:23:35;10.80;;;4.50;;
68870;SDS011;55906;52.278;6.808;2024-01-15T03:26:02;6.97;;;3.88;;
68870;SDS011;55906;52.278;6.808;2024-01-15T03:28:28;9.27;;;3.97;;
68870;SDS011;55906;52.278;6.808;2024-01-15T03:30:56;6.50;;;3.85;;
68870;SDS011;55906;52.278;6.808;2024-01-15T03:33:24;9.45;;;3.80;;
68870;SDS011;55906;52.278;6.808;2024-01-15T03:35:50;7.60;;;3.75;;
68870;SDS011;55906;52.278;6.808;2024-01-15T03:38:17;15.80;;;4.77;;
68870;SDS011;55906;52.278;6.808;2024-01-15T03:40:43;13.48;;;4.50;;
68870;SDS011;55906;52.278;6.808;2024-01-15T03:43:10;8.65;;;3.58;;
68870;SDS011;55906;52.278;6.808;2024-01-15T03:45:37;9.23;;;3.40;;
68870;SDS011;55906;52.278;6.808;2024-01-15T03:48:03;11.25;;;3.90;;
68870;SDS011;55906;52.278;6.808;2024-01-15T03:50:32;8.90;;;3.88;;
68870;SDS011;55906;52.278;6.808;2024-01-15T03:52:58;8.20;;;3.28;;
68870;SDS011;55906;52.278;6.808;2024-01-15T03:55:25;8.10;;;3.72;;
68870;SDS011;55906;52.278;6.808;2024-01-15T03:57:52;8.05;;;4.10;;
68870;SDS011;55906;52.278;6.808;2024-01-15T04:00:18;10.43;;;3.75;;
68870;SDS011;55906;52.278;6.808;2024-01-15T04:02:45;10.87;;;4.23;;
68870;SDS011;55906;52.278;6.808;2024-01-15T04:05:12;12.80;;;3.67;;
68870;SDS011;55906;52.278;6.808;2024-01-15T04:07:40;17.60;;;4.10;;
68870;SDS011;55906;52.278;6.808;2024-01-15T04:10:07;8.27;;;3.40;;
68870;SDS011;55906;52.278;6.808;2024-01-15T04:12:34;11.23;;;4.18;;
68870;SDS011;55906;52.278;6.808;2024-01-15T04:15:00;8.43;;;3.80;;
68870;SDS011;55906;52.278;6.808;2024-01-15T04:17:27;8.90;;;4.30;;
68870;SDS011;55906;52.278;6.808;2024-01-15T04:19:54;10.00;;;3.50;;
68870;SDS011;55906;52.278;6.808;2024-01-15T04:22:20;7.85;;;4.00;;
68870;SDS011;55906;52.278;6.808;2024-01-15T04:24:49;10.57;;;3.65;;
68870;SDS011;55906;52.278;6.808;2024-01-15T04:27:15;15.53;;;4.20;;
68870;SDS011;55906;52.278;6.808;2024-01-15T04:29:42;5.38;;;3.55;;
68870;SDS011;55906;52.278;6.808;2024-01-15T04:32:09;6.93;;;3.30;;
68870;SDS011;55906;52.278;6.808;2024-01-15T04:34:36;8.43;;;3.70;;
68870;SDS011;55906;52.278;6.808;2024-01-15T04:37:02;10.23;;;3.53;;
68870;SDS011;55906;52.278;6.808;2024-01-15T04:39:29;8.48;;;3.55;;
68870;SDS011;55906;52.278;6.808;2024-01-15T04:41:57;11.13;;;3.83;;
68870;SDS011;55906;52.278;6.808;2024-01-15T04:44:24;11.20;;;3.92;;
68870;SDS011;55906;52.278;6.808;2024-01-15T04:46:50;9.35;;;4.00;;
68870;SDS011;55906;52.278;6.808;2024-01-15T04:49:17;8.50;;;4.38;;
68870;SDS011;55906;52.278;6.808;2024-01-15T04:51:44;8.17;;;4.50;;
68870;SDS011;55906;52.278;6.808;2024-01-15T04:54:10;8.95;;;3.75;;
68870;SDS011;55906;52.278;6.808;2024-01-15T04:56:37;7.50;;;3.83;;
68870;SDS011;55906;52.278;6.808;2024-01-15T04:59:05;8.57;;;3.83;;
68870;SDS011;55906;52.278;6.808;2024-01-15T05:01:32;9.32;;;3.88;;
68870;SDS011;55906;52.278;6.808;2024-01-15T05:03:58;7.22;;;3.47;;
68870;SDS011;55906;52.278;6.808;2024-01-15T05:06:25;7.35;;;3.83;;
68870;SDS011;55906;52.278;6.808;2024-01-15T05:08:52;10.10;;;4.00;;
68870;SDS011;55906;52.278;6.808;2024-01-15T05:11:19;5.40;;;3.53;;
68870;SDS011;55906;52.278;6.808;2024-01-15T05:13:46;7.80;;;3.58;;
68870;SDS011;55906;52.278;6.808;2024-01-15T05:16:14;7.30;;;3.80;;
68870;SDS011;55906;52.278;6.808;2024-01-15T05:18:40;7.70;;;3.40;;
68870;SDS011;55906;52.278;6.808;2024-01-15T05:21:08;9.05;;;3.65;;
68870;SDS011;55906;52.278;6.808;2024-01-15T05:23:35;7.80;;;3.20;;
68870;SDS011;55906;52.278;6.808;2024-01-15T05:26:01;7.93;;;3.97;;
68870;SDS011;55906;52.278;6.808;2024-01-15T05:28:28;7.75;;;4.25;;
68870;SDS011;55906;52.278;6.808;2024-01-15T05:30:55;8.32;;;4.03;;
68870;SDS011;55906;52.278;6.808;2024-01-15T05:33:23;8.48;;;3.63;;
68870;SDS011;55906;52.278;6.808;2024-01-15T05:35:49;8.30;;;4.05;;
68870;SDS011;55906;52.278;6.808;2024-01-15T05:38:16;8.00;;;3.50;;
68870;SDS011;55906;52.278;6.808;2024-01-15T05:40:43;8.60;;;3.73;;
68870;SDS011;55906;52.278;6.808;2024-01-15T05:43:09;9.35;;;3.95;;
68870;SDS011;55906;52.278;6.808;2024-01-15T05:45:37;9.55;;;3.60;;
68870;SDS011;55906;52.278;6.808;2024-01-15T05:48:05;5.87;;;3.40;;
68870;SDS011;55906;52.278;6.808;2024-01-15T05:50:33;6.93;;;3.53;;
68870;SDS011;55906;52.278;6.808;2024-01-15T05:53:00;8.88;;;4.03;;
68870;SDS011;55906;52.278;6.808;2024-01-15T05:55:27;8.75;;;3.70;;
68870;SDS011;55906;52.278;6.808;2024-01-15T05:57:54;6.57;;;3.58;;
68870;SDS011;55906;52.278;6.808;2024-01-15T06:00:20;8.88;;;3.85;;
68870;SDS011;55906;52.278;6.808;2024-01-15T06:02:47;9.30;;;3.83;;
68870;SDS011;55906;52.278;6.808;2024-01-15T06:05:14;6.10;;;3.80;;
68870;SDS011;55906;52.278;6.808;2024-01-15T06:07:42;5.53;;;4.00;;
68870;SDS011;55906;52.278;6.808;2024-01-15T06:10:09;8.70;;;5.25;;
68870;SDS011;55906;52.278;6.808;2024-01-15T06:12:35;6.30;;;3.70;;
68870;SDS011;55906;52.278;6.808;2024-01-15T06:15:02;6.65;;;3.47;;
68870;SDS011;55906;52.278;6.808;2024-01-15T06:17:29;7.32;;;4.32;;
68870;SDS011;55906;52.278;6.808;2024-01-15T06:19:56;7.22;;;4.25;;
68870;SDS011;55906;52.278;6.808;2024-01-15T06:22:23;6.70;;;3.97;;
68870;SDS011;55906;52.278;6.808;2024-01-15T06:24:51;6.15;;;3.90;;
68870;SDS011;55906;52.278;6.808;2024-01-15T06:27:17;6.25;;;4.13;;
68870;SDS011;55906;52.278;6.808;2024-01-15T06:29:44;5.67;;;3.70;;
68870;SDS011;55906;52.278;6.808;2024-01-15T06:32:12;6.15;;;4.00;;
68870;SDS011;55906;52.278;6.808;2024-01-15T06:34:38;7.60;;;4.00;;
68870;SDS011;55906;52.278;6.808;2024-01-15T06:37:05;5.30;;;4.20;;
68870;SDS011;55906;52.278;6.808;2024-01-15T06:39:32;5.65;;;4.63;;
68870;SDS011;55906;52.278;6.808;2024-01-15T06:42:00;8.30;;;4.60;;
68870;SDS011;55906;52.278;6.808;2024-01-15T06:44:27;5.43;;;4.63;;
68870;SDS011;55906;52.278;6.808;2024-01-15T06:46:53;7.18;;;4.22;;
68870;SDS011;55906;52.278;6.808;2024-01-15T06:49:22;7.50;;;4.13;;
68870;SDS011;55906;52.278;6.808;2024-01-15T06:51:49;6.28;;;4.07;;
68870;SDS011;55906;52.278;6.808;2024-01-15T06:54:15;5.37;;;4.17;;
68870;SDS011;55906;52.278;6.808;2024-01-15T06:56:42;7.45;;;3.70;;
68870;SDS011;55906;52.278;6.808;2024-01-15T06:59:10;21.10;;;4.10;;
68870;SDS011;55906;52.278;6.808;2024-01-15T07:01:37;7.87;;;4.60;;
68870;SDS011;55906;52.278;6.808;2024-01-15T07:04:03;6.70;;;4.30;;
68870;SDS011;55906;52.278;6.808;2024-01-15T07:06:30;7.07;;;4.55;;
68870;SDS011;55906;52.278;6.808;2024-01-15T07:08:57;6.60;;;4.80;;
68870;SDS011;55906;52.278;6.808;2024-01-15T07:11:23;7.90;;;4.90;;
68870;SDS011;55906;52.278;6.808;2024-01-15T07:13:50;10.18;;;6.15;;
68870;SDS011;55906;52.278;6.808;2024-01-15T07:16:18;8.35;;;5.47;;
68870;SDS011;55906;52.278;6.808;2024-01-15T07:18:44;9.43;;;4.63;;
68870;SDS011;55906;52.278;6.808;2024-01-15T07:21:11;11.02;;;5.30;;
68870;SDS011;55906;52.278;6.808;2024-01-15T07:23:38;12.30;;;7.95;;
68870;SDS011;55906;52.278;6.808;2024-01-15T07:26:04;10.27;;;5.70;;
68870;SDS011;55906;52.278;6.808;2024-01-15T07:28:32;8.13;;;5.60;;
68870;SDS011;55906;52.278;6.808;2024-01-15T07:30:58;7.28;;;4.97;;
68870;SDS011;55906;52.278;6.808;2024-01-15T07:33:27;12.45;;;5.68;;
68870;SDS011;55906;52.278;6.808;2024-01-15T07:35:54;7.28;;;5.40;;
68870;SDS011;55906;52.278;6.808;2024-01-15T07:38:20;10.52;;;5.47;;
68870;SDS011;55906;52.278;6.808;2024-01-15T07:40:47;10.23;;;5.03;;
68870;SDS011;55906;52.278;6.808;2024-01-15T07:43:14;8.93;;;5.23;;
68870;SDS011;55906;52.278;6.808;2024-01-15T07:45:41;8.13;;;5.85;;
68870;SDS011;55906;52.278;6.808;2024-01-15T07:48:08;11.38;;;6.10;;
68870;SDS011;55906;52.278;6.808;2024-01-15T07:50:36;10.97;;;7.17;;
68870;SDS011;55906;52.278;6.808;2024-01-15T07:53:03;9.30;;;5.05;;
68870;SDS011;55906;52.278;6.808;2024-01-15T07:55:30;11.63;;;6.30;;
68870;SDS011;55906;52.278;6.808;2024-01-15T07:57:57;8.23;;;5.40;;
68870;SDS011;55906;52.278;6.808;2024-01-15T08:00:24;12.00;;;5.47;;
68870;SDS011;55906;52.278;6.808;2024-01-15T08:02:51;8.00;;;5.45;;
68870;SDS011;55906;52.278;6.808;2024-01-15T08:05:18;9.13;;;5.32;;
68870;SDS011;55906;52.278;6.808;2024-01-15T08:07:47;9.17;;;4.70;;
68870;SDS011;55906;52.278;6.808;2024-01-15T08:10:14;9.88;;;5.65;;
68870;SDS011;55906;52.278;6.808;2024-01-15T08:12:40;7.90;;;5.13;;
68870;SDS011;55906;52.278;6.808;2024-01-15T08:15:07;9.37;;;5.33;;
68870;SDS011;55906;52.278;6.808;2024-01-15T08:17:34;8.40;;;5.82;;
68870;SDS011;55906;52.278;6.808;2024-01-15T08:20:00;9.75;;;5.30;;
68870;SDS011;55906;52.278;6.808;2024-01-15T08:22:30;8.50;;;4.40;;
68870;SDS011;55906;52.278;6.808;2024-01-15T08:24:58;7.80;;;4.55;;
68870;SDS011;55906;52.278;6.808;2024-01-15T08:27:24;7.57;;;5.63;;
68870;SDS011;55906;52.278;6.808;2024-01-15T08:29:51;10.48;;;4.68;;
68870;SDS011;55906;52.278;6.808;2024-01-15T08:32:18;7.43;;;4.47;;
68870;SDS011;55906;52.278;6.808;2024-01-15T08:34:44;8.82;;;4.78;;
68870;SDS011;55906;52.278;6.808;2024-01-15T08:37:12;7.75;;;4.80;;
68870;SDS011;55906;52.278;6.808;2024-01-15T08:39:39;6.27;;;4.70;;
68870;SDS011;55906;52.278;6.808;2024-01-15T08:42:07;6.70;;;4.88;;
68870;SDS011;55906;52.278;6.808;2024-01-15T08:44:34;6.70;;;4.60;;
68870;SDS011;55906;52.278;6.808;2024-01-15T08:47:01;8.27;;;4.63;;
68870;SDS011;55906;52.278;6.808;2024-01-15T08:49:28;11.23;;;5.03;;
68870;SDS011;55906;52.278;6.808;2024-01-15T08:51:54;7.85;;;4.85;;
68870;SDS011;55906;52.278;6.808;2024-01-15T08:54:21;6.97;;;4.97;;
68870;SDS011;55906;52.278;6.808;2024-01-15T08:56:48;10.13;;;4.93;;
68870;SDS011;55906;52.278;6.808;2024-01-15T08:59:15;6.75;;;4.93;;
68870;SDS011;55906;52.278;6.808;2024-01-15T09:01:49;8.68;;;5.10;;
68870;SDS011;55906;52.278;6.808;2024-01-15T09:04:16;9.80;;;5.17;;
68870;SDS011;55906;52.278;6.808;2024-01-15T09:06:44;9.27;;;5.45;;
68870;SDS011;55906;52.278;6.808;2024-01-15T09:09:11;8.57;;;4.78;;
68870;SDS011;55906;52.278;6.808;2024-01-15T09:11:39;10.70;;;5.22;;
68870;SDS011;55906;52.278;6.808;2024-01-15T09:14:06;9.60;;;5.13;;
68870;SDS011;55906;52.278;6.808;2024-01-15T09:16:34;10.38;;;4.97;;
68870;SDS011;55906;52.278;6.808;2024-01-15T09:19:01;6.97;;;5.07;;
68870;SDS011;55906;52.278;6.808;2024-01-15T09:21:28;10.23;;;4.77;;
68870;SDS011;55906;52.278;6.808;2024-01-15T09:23:55;7.05;;;4.97;;
68870;SDS011;55906;52.278;6.808;2024-01-15T09:26:22;7.35;;;4.80;;
68870;SDS011;55906;52.278;6.808;2024-01-15T09:28:49;7.87;;;4.70;;
68870;SDS011;55906;52.278;6.808;2024-01-15T09:31:15;9.45;;;4.95;;
68870;SDS011;55906;52.278;6.808;2024-01-15T09:33:46;8.85;;;5.25;;
68870;SDS011;55906;52.278;6.808;2024-01-15T09:36:12;6.75;;;4.75;;
68870;SDS011;55906;52.278;6.808;2024-01-15T09:38:40;7.78;;;4.90;;
68870;SDS011;55906;52.278;6.808;2024-01-15T09:41:06;11.77;;;5.00;;
68870;SDS011;55906;52.278;6.808;2024-01-15T09:43:33;9.60;;;5.05;;
68870;SDS011;55906;52.278;6.808;2024-01-15T09:46:00;8.07;;;4.90;;
68870;SDS011;55906;52.278;6.808;2024-01-15T09:48:27;7.70;;;4.78;;
68870;SDS011;55906;52.278;6.808;2024-01-15T09:50:55;7.70;;;4.40;;
68870;SDS011;55906;52.278;6.808;2024-01-15T09:53:24;10.83;;;5.30;;
68870;SDS011;55906;52.278;6.808;2024-01-15T09:55:52;11.75;;;5.50;;
68870;SDS011;55906;52.278;6.808;2024-01-15T09:58:19;9.18;;;5.38;;
68870;SDS011;55906;52.278;6.808;2024-01-15T10:00:45;8.98;;;5.07;;
68870;SDS011;55906;52.278;6.808;2024-01-15T10:03:15;11.55;;;4.82;;
68870;SDS011;55906;52.278;6.808;2024-01-15T10:05:41;10.48;;;5.40;;
68870;SDS011;55906;52.278;6.808;2024-01-15T10:08:11;8.75;;;5.68;;
68870;SDS011;55906;52.278;6.808;2024-01-15T10:10:38;6.50;;;4.47;;
68870;SDS011;55906;52.278;6.808;2024-01-15T10:13:04;6.80;;;4.90;;
68870;SDS011;55906;52.278;6.808;2024-01-15T10:15:33;6.13;;;4.53;;
68870;SDS011;55906;52.278;6.808;2024-01-15T10:18:01;8.13;;;4.77;;
68870;SDS011;55906;52.278;6.808;2024-01-15T10:20:28;7.07;;;5.22;;
68870;SDS011;55906;52.278;6.808;2024-01-15T10:22:57;8.57;;;4.70;;
68870;SDS011;55906;52.278;6.808;2024-01-15T10:25:26;10.90;;;4.80;;
68870;SDS011;55906;52.278;6.808;2024-01-15T10:28:01;8.40;;;4.53;;
68870;SDS011;55906;52.278;6.808;2024-01-15T10:30:28;6.68;;;5.25;;
68870;SDS011;55906;52.278;6.808;2024-01-15T10:32:58;7.57;;;4.78;;
68870;SDS011;55906;52.278;6.808;2024-01-15T10:35:29;7.13;;;4.80;;
68870;SDS011;55906;52.278;6.808;2024-01-15T10:37:56;8.63;;;4.40;;
68870;SDS011;55906;52.278;6.808;2024-01-15T10:40:23;9.32;;;4.50;;
68870;SDS011;55906;52.278;6.808;2024-01-15T10:42:51;8.33;;;4.97;;
68870;SDS011;55906;52.278;6.808;2024-01-15T10:45:18;8.43;;;4.30;;
68870;SDS011;55906;52.278;6.808;2024-01-15T10:47:45;7.88;;;5.07;;
68870;SDS011;55906;52.278;6.808;2024-01-15T10:50:12;9.07;;;4.93;;
68870;SDS011;55906;52.278;6.808;2024-01-15T10:52:39;8.63;;;4.88;;
68870;SDS011;55906;52.278;6.808;2024-01-15T10:55:07;8.90;;;4.50;;
68870;SDS011;55906;52.278;6.808;2024-01-15T10:57:35;10.88;;;4.57;;
68870;SDS011;55906;52.278;6.808;2024-01-15T11:00:05;7.27;;;4.23;;
68870;SDS011;55906;52.278;6.808;2024-01-15T11:02:34;7.25;;;4.30;;
68870;SDS011;55906;52.278;6.808;2024-01-15T11:05:02;8.52;;;4.25;;
68870;SDS011;55906;52.278;6.808;2024-01-15T11:07:30;8.97;;;4.67;;
68870;SDS011;55906;52.278;6.808;2024-01-15T11:09:57;8.15;;;5.03;;
68870;SDS011;55906;52.278;6.808;2024-01-15T11:12:24;10.10;;;5.72;;
68870;SDS011;55906;52.278;6.808;2024-01-15T11:14:51;8.98;;;5.03;;
68870;SDS011;55906;52.278;6.808;2024-01-15T11:17:21;9.68;;;5.20;;
68870;SDS011;55906;52.278;6.808;2024-01-15T11:19:48;8.75;;;5.00;;
68870;SDS011;55906;52.278;6.808;2024-01-15T11:25:15;10.27;;;4.43;;
68870;SDS011;55906;52.278;6.808;2024-01-15T11:27:44;8.25;;;4.07;;
68870;SDS011;55906;52.278;6.808;2024-01-15T11:30:16;8.30;;;4.20;;
68870;SDS011;55906;52.278;6.808;2024-01-15T11:32:46;10.13;;;4.00;;
68870;SDS011;55906;52.278;6.808;2024-01-15T11:35:13;8.13;;;4.20;;
68870;SDS011;55906;52.278;6.808;2024-01-15T11:37:58;9.15;;;4.15;;
68870;SDS011;55906;52.278;6.808;2024-01-15T11:40:36;7.72;;;4.55;;
68870;SDS011;55906;52.278;6.808;2024-01-15T11:43:04;9.07;;;4.00;;
68870;SDS011;55906;52.278;6.808;2024-01-15T11:45:32;8.73;;;4.22;;
68870;SDS011;55906;52.278;6.808;2024-01-15T11:48:11;9.48;;;5.30;;
68870;SDS011;55906;52.278;6.808;2024-01-15T11:50:42;8.63;;;3.97;;
68870;SDS011;55906;52.278;6.808;2024-01-15T11:53:17;8.93;;;3.60;;
68870;SDS011;55906;52.278;6.808;2024-01-15T11:55:47;8.43;;;3.92;;
68870;SDS011;55906;52.278;6.808;2024-01-15T11:58:17;8.27;;;3.93;;
68870;SDS011;55906;52.278;6.808;2024-01-15T12:00:44;6.38;;;3.80;;
68870;SDS011;55906;52.278;6.808;2024-01-15T12:03:15;7.90;;;3.80;;
68870;SDS011;55906;52.278;6.808;2024-01-15T12:05:42;9.75;;;4.85;;
68870;SDS011;55906;52.278;6.808;2024-01-15T12:08:09;6.43;;;3.92;;
68870;SDS011;55906;52.278;6.808;2024-01-15T12:10:36;7.03;;;3.83;;
68870;SDS011;55906;52.278;6.808;2024-01-15T12:13:07;5.95;;;4.68;;
68870;SDS011;55906;52.278;6.808;2024-01-15T12:15:37;7.73;;;3.83;;
68870;SDS011;55906;52.278;6.808;2024-01-15T12:18:06;4.97;;;4.07;;
68870;SDS011;55906;52.278;6.808;2024-01-15T12:20:35;7.75;;;3.60;;
68870;SDS011;55906;52.278;6.808;2024-01-15T12:23:02;8.20;;;3.80;;
68870;SDS011;55906;52.278;6.808;2024-01-15T12:25:29;5.65;;;3.88;;
68870;SDS011;55906;52.278;6.808;2024-01-15T12:27:57;7.30;;;3.45;;
68870;SDS011;55906;52.278;6.808;2024-01-15T12:30:25;6.63;;;3.80;;
68870;SDS011;55906;52.278;6.808;2024-01-15T12:32:52;6.28;;;3.75;;
68870;SDS011;55906;52.278;6.808;2024-01-15T12:35:19;5.88;;;4.03;;
68870;SDS011;55906;52.278;6.808;2024-01-15T12:37:47;6.32;;;3.85;;
68870;SDS011;55906;52.278;6.808;2024-01-15T12:40:18;6.90;;;3.53;;
68870;SDS011;55906;52.278;6.808;2024-01-15T12:42:45;5.88;;;3.78;;
68870;SDS011;55906;52.278;6.808;2024-01-15T12:45:12;6.30;;;3.42;;
68870;SDS011;55906;52.278;6.808;2024-01-15T12:47:40;7.07;;;3.93;;
68870;SDS011;55906;52.278;6.808;2024-01-15T12:50:08;6.18;;;3.53;;
68870;SDS011;55906;52.278;6.808;2024-01-15T12:52:35;6.35;;;3.58;;
68870;SDS011;55906;52.278;6.808;2024-01-15T12:55:05;7.32;;;3.70;;
68870;SDS011;55906;52.278;6.808;2024-01-15T12:57:33;9.13;;;3.75;;
68870;SDS011;55906;52.278;6.808;2024-01-15T13:00:01;6.22;;;3.88;;
68870;SDS011;55906;52.278;6.808;2024-01-15T13:02:31;4.88;;;3.50;;
68870;SDS011;55906;52.278;6.808;2024-01-15T13:04:58;6.00;;;2.93;;
68870;SDS011;55906;52.278;6.808;2024-01-15T13:07:25;7.88;;;3.42;;
68870;SDS011;55906;52.278;6.808;2024-01-15T13:09:52;3.83;;;2.92;;
68870;SDS011;55906;52.278;6.808;2024-01-15T13:12:20;6.23;;;3.07;;
68870;SDS011;55906;52.278;6.808;2024-01-15T13:14:47;5.35;;;3.60;;
68870;SDS011;55906;52.278;6.808;2024-01-15T13:17:14;6.72;;;3.25;;
68870;SDS011;55906;52.278;6.808;2024-01-15T13:19:41;7.60;;;3.55;;
68870;SDS011;55906;52.278;6.808;2024-01-15T13:22:07;5.10;;;3.20;;
68870;SDS011;55906;52.278;6.808;2024-01-15T13:24:34;7.78;;;3.78;;
68870;SDS011;55906;52.278;6.808;2024-01-15T13:27:01;5.15;;;3.10;;
68870;SDS011;55906;52.278;6.808;2024-01-15T13:29:30;5.40;;;3.03;;
68870;SDS011;55906;52.278;6.808;2024-01-15T13:32:02;6.47;;;3.58;;
68870;SDS011;55906;52.278;6.808;2024-01-15T13:34:29;5.57;;;3.17;;
68870;SDS011;55906;52.278;6.808;2024-01-15T13:36:56;4.27;;;3.47;;
68870;SDS011;55906;52.278;6.808;2024-01-15T13:39:23;6.20;;;3.35;;
68870;SDS011;55906;52.278;6.808;2024-01-15T13:41:50;5.43;;;3.33;;
68870;SDS011;55906;52.278;6.808;2024-01-15T13:44:16;6.57;;;4.28;;
68870;SDS011;55906;52.278;6.808;2024-01-15T13:46:44;6.72;;;3.40;;
68870;SDS011;55906;52.278;6.808;2024-01-15T13:49:11;5.47;;;3.35;;
68870;SDS011;55906;52.278;6.808;2024-01-15T13:51:38;7.32;;;3.70;;
68870;SDS011;55906;52.278;6.808;2024-01-15T13:54:05;5.07;;;3.10;;
68870;SDS011;55906;52.278;6.808;2024-01-15T13:56:32;5.97;;;3.78;;
68870;SDS011;55906;52.278;6.808;2024-01-15T13:59:00;4.70;;;3.40;;
68870;SDS011;55906;52.278;6.808;2024-01-15T14:01:29;6.47;;;3.77;;
68870;SDS011;55906;52.278;6.808;2024-01-15T14:03:57;6.20;;;4.10;;
68870;SDS011;55906;52.278;6.808;2024-01-15T14:06:24;5.63;;;4.03;;
68870;SDS011;55906;52.278;6.808;2024-01-15T14:08:51;6.07;;;4.45;;
68870;SDS011;55906;52.278;6.808;2024-01-15T14:11:18;8.40;;;4.45;;
68870;SDS011;55906;52.278;6.808;2024-01-15T14:13:44;6.50;;;4.38;;
68870;SDS011;55906;52.278;6.808;2024-01-15T14:16:12;8.07;;;6.18;;
68870;SDS011;55906;52.278;6.808;2024-01-15T14:18:39;8.00;;;5.10;;
68870;SDS011;55906;52.278;6.808;2024-01-15T14:21:07;7.78;;;4.72;;
68870;SDS011;55906;52.278;6.808;2024-01-15T14:23:33;8.15;;;4.20;;
68870;SDS011;55906;52.278;6.808;2024-01-15T14:26:00;5.37;;;4.03;;
68870;SDS011;55906;52.278;6.808;2024-01-15T14:28:27;6.70;;;3.83;;
68870;SDS011;55906;52.278;6.808;2024-01-15T14:30:53;5.45;;;3.40;;
68870;SDS011;55906;52.278;6.808;2024-01-15T14:33:23;8.20;;;3.85;;
68870;SDS011;55906;52.278;6.808;2024-01-15T14:35:49;5.97;;;3.80;;
68870;SDS011;55906;52.278;6.808;2024-01-15T14:38:17;7.55;;;4.90;;
68870;SDS011;55906;52.278;6.808;2024-01-15T14:40:44;8.18;;;3.80;;
68870;SDS011;55906;52.278;6.808;2024-01-15T14:43:11;6.53;;;3.70;;
68870;SDS011;55906;52.278;6.808;2024-01-15T14:45:37;8.10;;;4.18;;
68870;SDS011;55906;52.278;6.808;2024-01-15T14:48:04;7.05;;;4.20;;